Novo Progresso/Cachimbo Air Base/Campo de Provas Brigadeiro Velloso

Airport
ICAO code: 
SBCC
Summary
ICAO Region: 
CARSAM
Territory: 
Location: 
Serra do Cachimbo, Pará
Serving: 
Serra do Cachimbo
Elevation: 
1762 ft
Coordinates: 
Aerial View: 
9° 20' 3.998" S, 54° 57' 54" W
Metar
Observation
SBCC 261100Z 07006KT CAVOK 22/18 Q1017
Station
Cachimbo
Date/Time
2022-05-26 11:00:00
Wind direction
70°
Wind speed
06 kts
Lowest cloud amount
clouds and visibility OK
Temperature
22°C
Dew point
18°C
Humidity
78%
QNH
1017 hPa
Weather condition
n/a

Military Airbase located near Serra do Cachimbo, Pará, Brasil. Part of Campo de Provas Brigadeiro Velloso, a large Brazilian military complex.

Climatology

Tropical Rainforest climate (Köppen climate classification Af) - almost no distinct seasons, average daily temperature around 27°C throughout the year. Extensive cloud cover and heavy rainfall prevent temperatures from rising much over 33°C. The diurnal temperature change is between 2°C and 5°C which is greater than the annual temperature range of 2°C. Rainfall is heavy and is usually convectional and in the afternoon.

Runways

Designator Length Width Surface Rops
12/30 2599 45 ASP No/No
Airport map: 
Aerial View: 

SKYbrary Partners:

Safety knowledge contributed by: